createdAt,value
2018-11-25T00:01:52.222Z,82.83
2018-11-25T00:04:20.369Z,72.72
2018-11-25T00:06:49.206Z,73.43
2018-11-25T00:09:17.282Z,69.22
2018-11-25T00:11:45.405Z,69.00
2018-11-25T00:14:14.340Z,69.40
2018-11-25T00:16:42.400Z,62.03
2018-11-25T00:19:10.479Z,68.10
2018-11-25T00:21:38.562Z,70.47
2018-11-25T00:24:06.661Z,65.83
2018-11-25T00:26:34.726Z,60.67
2018-11-25T00:29:02.810Z,59.57
2018-11-25T00:31:30.872Z,62.43
2018-11-25T00:33:58.973Z,62.07
2018-11-25T00:36:27.074Z,60.40
2018-11-25T00:38:55.155Z,65.28
2018-11-25T00:41:23.238Z,74.63
2018-11-25T00:43:51.327Z,238.60
2018-11-25T00:46:19.433Z,125.30
2018-11-25T00:48:47.510Z,578.27
2018-11-25T00:51:15.644Z,147.03
2018-11-25T00:53:44.627Z,102.40
2018-11-25T00:56:12.695Z,92.03
2018-11-25T00:58:40.766Z,88.30
2018-11-25T01:01:08.839Z,520.07
2018-11-25T01:03:36.923Z,495.50
2018-11-25T01:06:05.343Z,303.60
2018-11-25T01:08:33.442Z,771.97
2018-11-25T01:11:01.516Z,715.67
2018-11-25T01:13:29.793Z,805.27
2018-11-25T01:15:59.023Z,628.30
2018-11-25T01:18:27.126Z,425.40
2018-11-25T01:20:55.206Z,154.57
2018-11-25T01:23:23.306Z,176.70
2018-11-25T01:25:51.398Z,198.60
2018-11-25T01:28:19.475Z,154.47
2018-11-25T01:30:47.558Z,151.83
2018-11-25T01:33:15.684Z,148.02
2018-11-25T01:35:43.815Z,146.90
2018-11-25T01:38:13.066Z,129.77
2018-11-25T01:40:41.206Z,144.65
2018-11-25T01:43:09.242Z,110.37
2018-11-25T01:45:37.330Z,89.60
2018-11-25T01:48:05.586Z,91.67
2018-11-25T01:50:33.689Z,93.33
2018-11-25T01:53:01.767Z,94.17
2018-11-25T01:55:29.838Z,91.10
2018-11-25T01:57:57.932Z,84.60
2018-11-25T02:00:27.114Z,88.05
2018-11-25T02:02:55.202Z,92.80
2018-11-25T02:05:23.299Z,114.47
2018-11-25T02:07:51.390Z,103.97
2018-11-25T02:10:19.681Z,114.77
2018-11-25T02:12:47.818Z,98.97
2018-11-25T02:15:16.480Z,101.40
2018-11-25T02:17:44.564Z,91.70
2018-11-25T02:20:14.982Z,86.20
2018-11-25T02:22:43.080Z,74.87
2018-11-25T02:25:11.163Z,84.95
2018-11-25T02:27:39.767Z,95.47
2018-11-25T02:30:09.846Z,81.57
2018-11-25T02:32:37.925Z,84.17
2018-11-25T02:35:07.828Z,83.65
2018-11-25T02:37:35.913Z,72.17
2018-11-25T02:40:04.510Z,70.95
2018-11-25T02:42:32.615Z,70.60
2018-11-25T02:45:00.708Z,68.70
2018-11-25T02:47:28.819Z,73.27
2018-11-25T02:49:56.899Z,73.50
2018-11-25T02:52:24.961Z,80.60
2018-11-25T02:54:53.050Z,70.07
2018-11-25T02:57:24.394Z,73.70
2018-11-25T02:59:53.199Z,67.73
2018-11-25T03:02:21.310Z,58.83
2018-11-25T03:04:49.536Z,57.47
2018-11-25T03:07:17.685Z,50.20
2018-11-25T03:09:45.767Z,56.03
2018-11-25T03:12:13.861Z,49.63
2018-11-25T03:14:41.963Z,109.83
2018-11-25T03:17:10.048Z,80.93
2018-11-25T03:19:38.126Z,73.10
2018-11-25T03:22:06.206Z,92.53
2018-11-25T03:24:34.283Z,66.90
2018-11-25T03:27:02.350Z,324.60
2018-11-25T03:29:30.422Z,249.10
2018-11-25T03:31:58.498Z,190.70
2018-11-25T03:34:26.590Z,95.10
2018-11-25T03:36:54.667Z,442.27
2018-11-25T03:39:22.770Z,559.67
2018-11-25T03:41:50.854Z,511.13
2018-11-25T03:44:18.930Z,259.50
2018-11-25T03:46:47.017Z,162.53
2018-11-25T03:49:15.130Z,284.57
2018-11-25T03:51:44.282Z,231.07
2018-11-25T03:54:12.386Z,426.93
2018-11-25T03:56:40.470Z,206.50
2018-11-25T03:59:08.552Z,164.60
2018-11-25T04:01:36.650Z,115.10
2018-11-25T04:04:04.959Z,116.87
2018-11-25T04:06:33.032Z,148.20
2018-11-25T04:09:01.133Z,121.85
2018-11-25T04:11:29.231Z,169.10
2018-11-25T04:13:58.242Z,151.73
2018-11-25T04:16:26.334Z,219.07
2018-11-25T04:18:54.406Z,281.67
2018-11-25T04:21:22.500Z,262.08
2018-11-25T04:23:50.599Z,211.57
2018-11-25T04:26:19.295Z,140.40
2018-11-25T04:28:47.382Z,224.97
2018-11-25T04:31:15.466Z,219.13
2018-11-25T04:33:43.556Z,179.43
2018-11-25T04:36:11.641Z,146.73
2018-11-25T04:38:39.729Z,155.23
2018-11-25T04:41:08.453Z,172.60
2018-11-25T04:43:36.534Z,212.73
2018-11-25T04:46:04.665Z,167.13
2018-11-25T04:48:32.771Z,281.83
2018-11-25T04:51:00.866Z,111.90
2018-11-25T04:53:28.961Z,87.93
2018-11-25T04:55:57.037Z,544.57
2018-11-25T04:58:25.144Z,347.60
2018-11-25T05:00:53.235Z,121.53
2018-11-25T05:03:21.311Z,93.40
2018-11-25T05:05:49.524Z,102.97
2018-11-25T05:08:17.597Z,307.00
2018-11-25T05:10:45.685Z,221.13
2018-11-25T05:13:13.751Z,212.80
2018-11-25T05:15:43.108Z,145.37
2018-11-25T05:18:11.175Z,106.37
2018-11-25T05:20:39.255Z,122.87
2018-11-25T05:23:07.325Z,96.30
2018-11-25T05:25:35.394Z,92.13
2018-11-25T05:28:03.467Z,283.20
2018-11-25T05:30:31.546Z,104.77
2018-11-25T05:32:59.627Z,94.67
2018-11-25T05:35:27.730Z,99.67
2018-11-25T05:37:55.833Z,91.20
2018-11-25T05:40:23.946Z,101.07
2018-11-25T05:42:52.022Z,81.33
2018-11-25T05:45:20.381Z,85.97
2018-11-25T05:47:48.517Z,92.13
2018-11-25T05:50:18.303Z,88.40
2018-11-25T05:52:46.378Z,83.50
2018-11-25T05:55:14.614Z,71.93
2018-11-25T05:57:43.212Z,64.90
2018-11-25T06:00:17.134Z,69.03
2018-11-25T06:02:45.226Z,65.90
2018-11-25T06:05:13.300Z,63.93
2018-11-25T06:07:41.414Z,59.63
2018-11-25T06:10:12.502Z,62.87
2018-11-25T06:12:40.660Z,70.63
2018-11-25T06:15:10.788Z,59.23
2018-11-25T06:17:38.868Z,56.97
2018-11-25T06:20:09.073Z,59.23
2018-11-25T06:22:37.202Z,59.88
2018-11-25T06:25:06.651Z,67.67
2018-11-25T06:27:38.225Z,69.67
2018-11-25T06:30:03.333Z,73.97
2018-11-25T06:32:31.404Z,81.17
2018-11-25T06:37:24.543Z,85.27
2018-11-25T06:39:52.657Z,101.70
2018-11-25T06:42:20.732Z,361.33
2018-11-25T06:44:48.790Z,352.23
2018-11-25T06:47:16.876Z,211.80
2018-11-25T06:49:44.962Z,216.73
2018-11-25T06:52:13.034Z,210.67
2018-11-25T06:54:41.119Z,229.43
2018-11-25T06:57:09.186Z,282.47
2018-11-25T06:59:37.263Z,254.93
2018-11-25T07:02:05.800Z,255.25
2018-11-25T07:04:33.891Z,288.77
2018-11-25T07:07:01.965Z,195.07
2018-11-25T07:09:30.038Z,323.30
2018-11-25T07:11:58.123Z,201.60
2018-11-25T07:14:26.205Z,152.33
2018-11-25T07:16:54.279Z,163.00
2018-11-25T07:19:22.350Z,94.42
2018-11-25T07:21:50.431Z,310.17
2018-11-25T07:24:18.497Z,75.97
2018-11-25T07:26:46.559Z,75.70
2018-11-25T07:29:14.645Z,89.70
2018-11-25T07:31:42.758Z,84.40
2018-11-25T07:34:10.831Z,161.83
2018-11-25T07:36:38.903Z,104.30
2018-11-25T07:39:07.574Z,60.30
2018-11-25T07:41:35.668Z,51.80
2018-11-25T07:44:03.744Z,60.00
2018-11-25T07:46:31.824Z,55.87
2018-11-25T07:49:00.111Z,49.00
2018-11-25T07:51:28.198Z,44.40
2018-11-25T07:53:56.266Z,41.88
2018-11-25T07:56:24.330Z,43.03
2018-11-25T07:58:52.415Z,38.70
2018-11-25T08:01:20.498Z,40.03
2018-11-25T08:03:49.024Z,35.30
2018-11-25T08:06:17.129Z,28.50
2018-11-25T08:08:45.199Z,25.57
2018-11-25T08:11:13.283Z,25.23
2018-11-25T08:13:41.347Z,25.17
2018-11-25T08:16:09.445Z,23.77
2018-11-25T08:18:37.518Z,25.67
2018-11-25T08:21:06.054Z,23.10
2018-11-25T08:23:34.150Z,20.72
2018-11-25T08:26:02.242Z,21.97
2018-11-25T08:28:30.335Z,20.20
2018-11-25T08:30:59.316Z,17.83
2018-11-25T08:33:27.404Z,19.07
2018-11-25T08:35:55.825Z,17.60
2018-11-25T08:38:23.902Z,15.80
2018-11-25T08:40:51.993Z,16.30
2018-11-25T08:43:20.074Z,15.68
2018-11-25T08:45:48.259Z,13.50
2018-11-25T08:48:16.346Z,17.17
2018-11-25T08:50:44.532Z,16.50
2018-11-25T08:53:12.623Z,13.67
2018-11-25T08:55:40.723Z,18.10
2018-11-25T08:58:08.982Z,17.83
2018-11-25T09:00:37.068Z,22.10
2018-11-25T09:03:06.346Z,22.77
2018-11-25T09:05:34.983Z,28.05
2018-11-25T09:08:02.755Z,26.87
2018-11-25T09:10:32.651Z,27.68
2018-11-25T09:13:00.713Z,28.60
2018-11-25T09:15:29.973Z,30.63
2018-11-25T09:17:58.563Z,33.97
2018-11-25T09:20:27.465Z,37.07
2018-11-25T09:22:55.538Z,31.07
2018-11-25T09:25:24.962Z,33.30
2018-11-25T09:27:53.991Z,34.40
2018-11-25T09:30:23.945Z,35.17
2018-11-25T09:32:52.018Z,36.95
2018-11-25T09:35:20.122Z,36.70
2018-11-25T09:37:49.084Z,39.93
2018-11-25T09:40:18.284Z,47.55
2018-11-25T09:42:46.445Z,42.53
2018-11-25T09:45:15.512Z,37.10
2018-11-25T09:47:44.043Z,35.23
2018-11-25T09:50:14.149Z,39.80
2018-11-25T09:52:42.252Z,36.93
2018-11-25T09:55:17.321Z,36.08
2018-11-25T09:57:46.598Z,38.23
2018-11-25T10:00:16.776Z,36.40
2018-11-25T10:02:44.891Z,36.53
2018-11-25T10:05:15.271Z,40.92
2018-11-25T10:07:43.966Z,35.47
2018-11-25T10:10:19.932Z,36.10
2018-11-25T10:12:50.037Z,36.10
2018-11-25T10:15:21.594Z,32.83
2018-11-25T10:17:49.914Z,33.23
2018-11-25T10:20:23.509Z,29.10
2018-11-25T10:22:52.687Z,28.37
2018-11-25T10:25:22.178Z,27.52
2018-11-25T10:27:50.290Z,31.37
2018-11-25T10:30:20.550Z,26.47
2018-11-25T10:32:52.913Z,28.77
2018-11-25T10:35:21.087Z,33.00
2018-11-25T10:37:49.183Z,32.50
2018-11-25T10:40:19.570Z,34.40
2018-11-25T10:42:47.742Z,34.27
2018-11-25T10:45:18.055Z,34.43
2018-11-25T10:47:46.151Z,36.83
2018-11-25T10:50:15.229Z,34.80
2018-11-25T10:52:43.375Z,32.33
2018-11-25T10:55:12.484Z,32.43
2018-11-25T10:57:41.326Z,35.07
2018-11-25T11:00:15.925Z,34.47
2018-11-25T11:02:44.611Z,34.70
2018-11-25T11:05:17.011Z,36.03
2018-11-25T11:07:45.499Z,34.93
2018-11-25T11:10:13.601Z,35.10
2018-11-25T11:12:41.727Z,33.30
2018-11-25T11:15:11.118Z,34.18
2018-11-25T11:17:39.423Z,32.23
2018-11-25T11:20:09.705Z,32.42
2018-11-25T11:22:40.284Z,36.07
2018-11-25T11:25:09.040Z,32.53
2018-11-25T11:27:37.231Z,32.15
2018-11-25T11:30:08.574Z,34.67
2018-11-25T11:32:36.930Z,36.10
2018-11-25T11:35:06.799Z,35.85
2018-11-25T11:37:35.207Z,36.87
2018-11-25T11:40:03.665Z,36.40
2018-11-25T11:42:31.795Z,35.70
2018-11-25T11:44:59.866Z,37.70
2018-11-25T11:47:27.974Z,33.88
2018-11-25T11:49:56.132Z,35.33
2018-11-25T11:52:24.247Z,35.25
2018-11-25T11:54:52.371Z,30.93
2018-11-25T11:57:20.442Z,33.17
2018-11-25T11:59:48.514Z,34.50
2018-11-25T12:02:16.613Z,33.20
2018-11-25T12:04:44.718Z,29.47
2018-11-25T12:07:12.992Z,30.73
2018-11-25T12:09:42.296Z,30.47
2018-11-25T12:12:10.584Z,34.10
2018-11-25T12:14:38.774Z,31.10
2018-11-25T12:17:06.909Z,29.97
2018-11-25T12:19:35.006Z,28.50
2018-11-25T12:22:03.078Z,27.43
2018-11-25T12:24:31.152Z,28.57
2018-11-25T12:26:59.231Z,28.00
2018-11-25T12:29:27.306Z,26.93
2018-11-25T12:31:55.390Z,25.30
2018-11-25T12:34:23.474Z,25.37
2018-11-25T12:36:53.412Z,28.77
2018-11-25T12:39:20.171Z,24.63
2018-11-25T12:41:48.251Z,26.20
2018-11-25T12:44:16.340Z,28.60
2018-11-25T12:46:44.414Z,25.17
2018-11-25T12:49:13.715Z,28.85
2018-11-25T12:51:41.824Z,27.20
2018-11-25T12:54:09.910Z,25.40
2018-11-25T12:56:38.002Z,24.80
2018-11-25T12:59:07.064Z,24.30
2018-11-25T13:01:35.157Z,21.70
2018-11-25T13:04:03.258Z,21.30
2018-11-25T13:06:31.331Z,23.70
2018-11-25T13:08:59.434Z,23.30
2018-11-25T13:11:27.538Z,21.90
2018-11-25T13:13:55.652Z,24.40
2018-11-25T13:16:23.731Z,20.97
2018-11-25T13:18:51.866Z,21.10
2018-11-25T13:21:21.185Z,22.42
2018-11-25T13:23:49.270Z,21.47
2018-11-25T13:26:17.368Z,20.53
2018-11-25T13:28:45.453Z,17.90
2018-11-25T13:31:13.579Z,17.77
2018-11-25T13:33:41.685Z,21.20
2018-11-25T13:36:10.230Z,21.67
2018-11-25T13:38:38.315Z,22.87
2018-11-25T13:41:07.095Z,23.10
2018-11-25T13:43:35.173Z,19.60
2018-11-25T13:46:03.274Z,18.27
2018-11-25T13:48:31.382Z,20.30
2018-11-25T13:51:08.082Z,21.52
2018-11-25T13:53:36.207Z,20.00
2018-11-25T13:56:04.370Z,22.70
2018-11-25T13:58:32.490Z,24.03
2018-11-25T14:01:00.787Z,24.50
2018-11-25T14:03:31.794Z,21.13
2018-11-25T14:05:59.939Z,22.10
2018-11-25T14:08:28.147Z,22.90
2018-11-25T14:11:00.415Z,22.37
2018-11-25T14:13:29.499Z,24.53
2018-11-25T14:15:57.586Z,24.07
2018-11-25T14:18:25.826Z,21.57
2018-11-25T14:20:53.978Z,23.97
2018-11-25T14:23:22.062Z,22.03
2018-11-25T14:25:50.490Z,32.27
2018-11-25T14:28:18.778Z,34.85
2018-11-25T14:30:46.879Z,28.57
2018-11-25T14:33:15.166Z,30.63
2018-11-25T14:35:43.478Z,27.55
2018-11-25T14:38:11.558Z,29.13
2018-11-25T14:40:39.658Z,27.63
2018-11-25T14:43:07.957Z,29.13
2018-11-25T14:45:36.038Z,32.43
2018-11-25T14:48:04.109Z,31.55
2018-11-25T14:50:32.191Z,26.87
2018-11-25T14:53:00.271Z,28.00
2018-11-25T14:55:28.350Z,23.27
2018-11-25T14:58:02.184Z,27.43
2018-11-25T15:00:31.295Z,26.90
2018-11-25T15:03:00.774Z,29.27
2018-11-25T15:05:32.479Z,56.97
2018-11-25T15:08:00.582Z,41.47
2018-11-25T15:10:28.658Z,29.73
2018-11-25T15:12:56.744Z,27.27
2018-11-25T15:15:24.818Z,24.73
2018-11-25T15:17:53.028Z,26.40
2018-11-25T15:20:21.213Z,23.07
2018-11-25T15:22:51.199Z,25.97
2018-11-25T15:25:21.125Z,24.00
2018-11-25T15:27:51.169Z,29.73
2018-11-25T15:30:19.393Z,35.20
2018-11-25T15:32:47.458Z,35.23
2018-11-25T15:35:15.552Z,25.50
2018-11-25T15:37:45.298Z,25.57
2018-11-25T15:40:19.199Z,21.77
2018-11-25T15:42:47.270Z,22.13
2018-11-25T15:45:15.350Z,20.60
2018-11-25T15:47:45.439Z,17.83
2018-11-25T15:50:18.358Z,17.60
2018-11-25T15:52:46.453Z,19.40
2018-11-25T15:55:15.052Z,19.47
2018-11-25T15:57:43.136Z,19.25
2018-11-25T16:00:14.971Z,19.47
2018-11-25T16:02:43.075Z,16.23
2018-11-25T16:05:12.699Z,20.15
2018-11-25T16:07:40.780Z,18.87
2018-11-25T16:10:11.230Z,18.07
2018-11-25T16:12:39.893Z,18.37
2018-11-25T16:15:09.794Z,22.37
2018-11-25T16:17:37.932Z,21.23
2018-11-25T16:20:09.848Z,15.80
2018-11-25T16:22:37.966Z,14.80
2018-11-25T16:25:09.874Z,15.00
2018-11-25T16:27:37.960Z,13.33
2018-11-25T16:30:08.565Z,14.60
2018-11-25T16:32:37.198Z,14.10
2018-11-25T16:35:06.870Z,51.97
2018-11-25T16:37:35.485Z,33.73
2018-11-25T16:40:03.939Z,29.63
2018-11-25T16:42:32.031Z,16.60
2018-11-25T16:45:00.099Z,14.78
2018-11-25T16:47:28.195Z,14.90
2018-11-25T16:49:56.263Z,14.20
2018-11-25T16:52:24.345Z,12.97
2018-11-25T16:54:53.114Z,13.27
2018-11-25T16:57:21.786Z,12.17
2018-11-25T16:59:50.522Z,12.87
2018-11-25T17:02:23.775Z,13.13
2018-11-25T17:04:51.856Z,21.10
2018-11-25T17:07:19.934Z,32.00
2018-11-25T17:09:48.026Z,28.57
2018-11-25T17:12:16.128Z,16.05
2018-11-25T17:14:44.199Z,18.13
2018-11-25T17:17:12.307Z,16.32
2018-11-25T17:19:40.386Z,15.23
2018-11-25T17:22:10.216Z,18.23
2018-11-25T17:24:40.618Z,17.97
2018-11-25T17:27:10.667Z,15.00
2018-11-25T17:29:40.041Z,15.93
2018-11-25T17:32:08.123Z,16.07
2018-11-25T17:34:36.218Z,16.30
2018-11-25T17:37:06.610Z,13.70
2018-11-25T17:39:34.723Z,16.62
2018-11-25T17:42:02.826Z,15.37
2018-11-25T17:44:30.955Z,14.45
2018-11-25T17:46:59.021Z,17.17
2018-11-25T17:49:27.360Z,21.70
2018-11-25T17:51:55.430Z,18.47
2018-11-25T17:54:23.515Z,20.17
2018-11-25T17:56:51.720Z,20.97
2018-11-25T17:59:19.798Z,22.23
2018-11-25T18:01:47.922Z,19.60
2018-11-25T18:04:16.063Z,46.13
2018-11-25T18:06:44.176Z,28.35
2018-11-25T18:09:12.235Z,22.57
2018-11-25T18:11:41.289Z,20.95
2018-11-25T18:14:09.910Z,21.87
2018-11-25T18:16:37.986Z,20.57
2018-11-25T18:19:18.704Z,19.97
2018-11-25T18:21:47.233Z,20.27
2018-11-25T18:24:15.302Z,18.80
2018-11-25T18:26:43.378Z,21.93
2018-11-25T18:29:11.467Z,21.33
2018-11-25T18:31:39.538Z,18.43
2018-11-25T18:34:10.126Z,19.23
2018-11-25T18:36:38.309Z,16.03
2018-11-25T18:39:09.645Z,18.00
2018-11-25T18:41:37.776Z,18.77
2018-11-25T18:44:06.465Z,18.13
2018-11-25T18:46:34.550Z,17.17
2018-11-25T18:49:05.660Z,18.23
2018-11-25T18:51:33.738Z,20.33
2018-11-25T18:54:01.822Z,18.03
2018-11-25T18:56:31.025Z,18.98
2018-11-25T18:58:59.104Z,19.73
2018-11-25T19:01:40.294Z,18.57
2018-11-25T19:04:08.393Z,17.20
2018-11-25T19:06:37.835Z,18.93
2018-11-25T19:09:10.793Z,17.50
2018-11-25T19:11:39.055Z,17.75
2018-11-25T19:14:07.130Z,17.23
2018-11-25T19:16:35.470Z,22.03
2018-11-25T19:19:09.601Z,18.53
2018-11-25T19:21:37.767Z,18.13
2018-11-25T19:24:06.098Z,17.60
2018-11-25T19:26:34.228Z,18.45
2018-11-25T19:29:02.402Z,17.10
2018-11-25T19:31:30.562Z,18.37
2018-11-25T19:33:58.735Z,16.50
2018-11-25T19:36:26.855Z,16.20
2018-11-25T19:38:57.287Z,19.37
2018-11-25T19:41:25.501Z,17.17
2018-11-25T19:43:53.602Z,17.33
2018-11-25T19:46:23.879Z,18.17
2018-11-25T19:48:57.842Z,16.57
2018-11-25T19:51:27.363Z,17.77
2018-11-25T19:53:56.041Z,18.60
2018-11-25T19:56:26.860Z,18.73
2018-11-25T19:58:59.480Z,24.93
2018-11-25T20:01:28.253Z,19.40
2018-11-25T20:03:56.405Z,17.93
2018-11-25T20:06:24.522Z,19.75
2018-11-25T20:08:52.738Z,23.17
2018-11-25T20:11:20.960Z,25.62
2018-11-25T20:13:49.062Z,25.97
2018-11-25T20:16:22.712Z,24.43
2018-11-25T20:18:50.787Z,23.17
2018-11-25T20:21:25.527Z,24.87
2018-11-25T20:23:53.623Z,24.60
2018-11-25T20:26:23.215Z,23.57
2018-11-25T20:28:51.315Z,24.13
2018-11-25T20:31:19.392Z,22.50
2018-11-25T20:33:52.217Z,26.53
2018-11-25T20:36:17.080Z,24.67
2018-11-25T20:38:50.519Z,20.65
2018-11-25T20:41:18.709Z,26.47
2018-11-25T20:43:46.840Z,23.65
2018-11-25T20:46:20.475Z,24.07
2018-11-25T20:48:48.582Z,21.65
2018-11-25T20:51:16.718Z,21.30
2018-11-25T20:53:50.266Z,22.50
2018-11-25T20:56:18.346Z,20.63
2018-11-25T20:58:48.486Z,22.53
2018-11-25T21:01:16.554Z,20.50
2018-11-25T21:03:45.298Z,30.85
2018-11-25T21:06:13.378Z,20.10
2018-11-25T21:08:41.471Z,26.77
2018-11-25T21:11:09.578Z,22.82
2018-11-25T21:13:37.675Z,24.73
2018-11-25T21:16:05.761Z,23.55
2018-11-25T21:18:33.919Z,29.20
2018-11-25T21:21:01.993Z,24.63
2018-11-25T21:23:30.138Z,27.83
2018-11-25T21:25:58.219Z,29.03
2018-11-25T21:28:26.290Z,27.17
2018-11-25T21:30:54.370Z,29.47
2018-11-25T21:33:22.564Z,25.88
2018-11-25T21:35:50.674Z,27.17
2018-11-25T21:38:18.750Z,26.43
2018-11-25T21:40:46.845Z,25.53
2018-11-25T21:43:16.255Z,27.48
2018-11-25T21:45:44.603Z,26.17
2018-11-25T21:48:12.681Z,26.03
2018-11-25T21:50:40.864Z,26.93
2018-11-25T21:53:09.103Z,25.97
2018-11-25T21:55:39.410Z,25.92
2018-11-25T21:58:07.966Z,27.33
2018-11-25T22:00:36.082Z,26.87
2018-11-25T22:03:04.146Z,27.73
2018-11-25T22:05:32.226Z,25.27
2018-11-25T22:08:00.369Z,25.83
2018-11-25T22:10:30.657Z,27.53
2018-11-25T22:12:59.383Z,25.80
2018-11-25T22:15:27.465Z,28.23
2018-11-25T22:17:55.533Z,28.80
2018-11-25T22:20:23.622Z,29.60
2018-11-25T22:22:51.974Z,29.97
2018-11-25T22:25:20.582Z,27.77
2018-11-25T22:27:48.830Z,25.27
2018-11-25T22:30:21.222Z,26.50
2018-11-25T22:32:51.324Z,26.57
2018-11-25T22:35:24.444Z,30.00
2018-11-25T22:37:54.167Z,30.97
2018-11-25T22:40:26.524Z,31.00
2018-11-25T22:42:54.606Z,30.10
2018-11-25T22:45:23.604Z,31.23
2018-11-25T22:47:54.728Z,31.77
2018-11-25T22:50:25.623Z,30.72
2018-11-25T22:52:51.236Z,32.13
2018-11-25T22:55:23.650Z,33.85
2018-11-25T22:57:51.734Z,32.53
2018-11-25T23:00:24.024Z,31.52
2018-11-25T23:02:52.440Z,32.60
2018-11-25T23:07:03.151Z,32.65
2018-11-25T23:09:31.634Z,33.07
2018-11-25T23:11:59.698Z,33.00
2018-11-25T23:14:27.786Z,30.92
2018-11-25T23:16:55.870Z,33.17
2018-11-25T23:19:25.275Z,32.48
2018-11-25T23:21:53.375Z,31.10
2018-11-25T23:24:21.458Z,33.17
2018-11-25T23:26:49.530Z,33.90
2018-11-25T23:29:17.633Z,32.07
2018-11-25T23:31:45.773Z,35.60
2018-11-25T23:34:13.839Z,33.37
2018-11-25T23:36:41.919Z,30.90
2018-11-25T23:39:10.378Z,32.83
2018-11-25T23:41:39.350Z,37.40
2018-11-25T23:44:08.148Z,37.43
2018-11-25T23:46:36.580Z,32.40
2018-11-25T23:49:04.814Z,32.40
2018-11-25T23:51:32.911Z,36.43
2018-11-25T23:54:01.022Z,34.05
2018-11-25T23:56:29.798Z,34.13
2018-11-25T23:58:59.248Z,36.03
